createdAt,value
2023-01-21T00:01:06.724Z,31.83
2023-01-21T00:03:36.354Z,34.92
2023-01-21T00:06:03.458Z,33.05
2023-01-21T00:08:45.802Z,30.95
2023-01-21T00:11:14.820Z,36.40
2023-01-21T00:13:42.827Z,35.13
2023-01-21T00:16:11.576Z,37.53
2023-01-21T00:18:38.400Z,36.58
2023-01-21T00:21:05.608Z,38.58
2023-01-21T00:23:32.434Z,38.65
2023-01-21T00:26:05.191Z,35.58
2023-01-21T00:28:34.159Z,37.08
2023-01-21T00:31:03.610Z,39.90
2023-01-21T00:33:31.498Z,43.38
2023-01-21T00:35:58.576Z,38.53
2023-01-21T00:38:25.690Z,35.50
2023-01-21T00:40:52.711Z,36.10
2023-01-21T00:43:19.666Z,37.75
2023-01-21T00:45:46.694Z,37.88
2023-01-21T00:48:13.605Z,37.33
2023-01-21T00:50:40.591Z,36.53
2023-01-21T00:53:07.599Z,38.50
2023-01-21T00:55:34.858Z,36.85
2023-01-21T00:58:02.032Z,34.97
2023-01-21T01:00:29.488Z,37.58
2023-01-21T01:02:56.616Z,39.25
2023-01-21T01:05:23.496Z,37.90
2023-01-21T01:07:50.654Z,34.17
2023-01-21T01:10:18.114Z,38.47
2023-01-21T01:12:45.108Z,37.67
2023-01-21T01:15:12.079Z,36.30
2023-01-21T01:17:38.962Z,41.50
2023-01-21T01:20:06.823Z,40.95
2023-01-21T01:22:33.845Z,38.10
2023-01-21T01:25:00.902Z,35.88
2023-01-21T01:27:29.628Z,40.42
2023-01-21T01:29:56.545Z,40.13
2023-01-21T01:32:23.403Z,46.03
2023-01-21T01:34:50.187Z,40.75
2023-01-21T01:37:17.268Z,42.05
2023-01-21T01:39:44.377Z,37.75
2023-01-21T01:42:17.656Z,37.03
2023-01-21T01:44:58.696Z,37.45
2023-01-21T01:47:39.773Z,39.78
2023-01-21T01:50:11.282Z,39.92
2023-01-21T01:52:39.381Z,40.97
2023-01-21T01:55:07.536Z,44.58
2023-01-21T01:57:41.823Z,39.05
2023-01-21T02:00:11.288Z,43.00
2023-01-21T02:02:40.833Z,37.20
2023-01-21T02:05:10.456Z,40.55
2023-01-21T02:07:40.914Z,37.40
2023-01-21T02:10:10.171Z,35.28
2023-01-21T02:12:38.894Z,40.75
2023-01-21T02:15:06.643Z,37.50
2023-01-21T02:17:55.469Z,38.40
2023-01-21T02:21:03.443Z,43.40
2023-01-21T02:23:49.132Z,45.50
2023-01-21T02:26:15.899Z,52.58
2023-01-21T02:28:54.804Z,42.28
2023-01-21T02:32:03.140Z,46.10
2023-01-21T02:34:43.699Z,45.40
2023-01-21T02:37:21.782Z,42.30
2023-01-21T02:40:04.268Z,44.30
2023-01-21T02:42:40.269Z,48.47
2023-01-21T02:45:25.933Z,41.58
2023-01-21T02:48:11.763Z,45.20
2023-01-21T02:50:54.026Z,48.10
2023-01-21T02:53:28.391Z,45.97
2023-01-21T02:55:59.616Z,44.58
2023-01-21T02:58:32.476Z,49.25
2023-01-21T03:01:14.944Z,49.05
2023-01-21T03:04:10.546Z,46.15
2023-01-21T03:06:56.225Z,44.53
2023-01-21T03:09:28.947Z,44.78
2023-01-21T03:12:27.538Z,51.22
2023-01-21T03:15:31.940Z,51.60
2023-01-21T03:18:08.774Z,55.47
2023-01-21T03:20:48.038Z,49.95
2023-01-21T03:23:20.292Z,51.53
2023-01-21T03:25:48.609Z,47.90
2023-01-21T03:28:21.358Z,47.58
2023-01-21T03:30:55.535Z,51.55
2023-01-21T03:33:23.429Z,51.90
2023-01-21T03:35:53.689Z,47.88
2023-01-21T03:38:31.789Z,51.78
2023-01-21T03:41:19.647Z,46.90
2023-01-21T03:43:46.689Z,50.38
2023-01-21T03:46:21.785Z,45.45
2023-01-21T03:48:57.803Z,53.25
2023-01-21T03:51:31.712Z,47.00
2023-01-21T03:54:00.137Z,53.85
2023-01-21T03:56:28.394Z,49.17
2023-01-21T03:58:55.208Z,49.03
2023-01-21T04:01:22.322Z,52.75
2023-01-21T04:03:49.404Z,50.97
2023-01-21T04:06:18.566Z,51.20
2023-01-21T04:08:45.812Z,50.00
2023-01-21T04:11:12.835Z,51.88
2023-01-21T04:13:39.914Z,54.22
2023-01-21T04:16:07.329Z,50.63
2023-01-21T04:18:34.529Z,52.35
2023-01-21T04:21:01.543Z,53.75
2023-01-21T04:23:28.444Z,49.03
2023-01-21T04:25:55.295Z,53.13
2023-01-21T04:28:22.121Z,56.47
2023-01-21T04:30:49.367Z,54.22
2023-01-21T04:33:17.027Z,51.92
2023-01-21T04:35:44.120Z,56.83
2023-01-21T04:38:11.651Z,52.55
2023-01-21T04:40:38.466Z,51.40
2023-01-21T04:43:05.342Z,57.30
2023-01-21T04:45:32.183Z,55.08
2023-01-21T04:47:59.166Z,59.30
2023-01-21T04:50:26.110Z,61.28
2023-01-21T04:52:53.127Z,57.42
2023-01-21T04:55:20.002Z,61.00
2023-01-21T04:57:46.879Z,57.70
2023-01-21T05:00:14.402Z,53.83
2023-01-21T05:02:41.310Z,62.03
2023-01-21T05:05:08.604Z,57.13
2023-01-21T05:07:35.543Z,59.45
2023-01-21T05:10:02.610Z,61.40
2023-01-21T05:12:29.595Z,54.80
2023-01-21T05:14:57.832Z,54.97
2023-01-21T05:17:25.095Z,69.57
2023-01-21T05:19:51.955Z,65.93
2023-01-21T05:22:19.020Z,59.55
2023-01-21T05:24:45.861Z,56.05
2023-01-21T05:27:12.803Z,61.53
2023-01-21T05:29:40.360Z,62.75
2023-01-21T05:32:07.202Z,63.50
2023-01-21T05:34:34.003Z,58.90
2023-01-21T05:37:00.886Z,62.53
2023-01-21T05:39:28.005Z,60.75
2023-01-21T05:41:55.029Z,61.13
2023-01-21T05:44:22.099Z,61.35
2023-01-21T05:46:48.994Z,59.45
2023-01-21T05:49:15.936Z,60.33
2023-01-21T05:51:42.898Z,59.35
2023-01-21T05:54:09.928Z,60.50
2023-01-21T05:56:37.226Z,53.45
2023-01-21T05:59:05.210Z,57.22
2023-01-21T06:01:32.130Z,61.38
2023-01-21T06:03:58.983Z,55.47
2023-01-21T06:06:25.904Z,57.20
2023-01-21T06:08:53.073Z,60.10
2023-01-21T06:11:19.900Z,58.58
2023-01-21T06:13:46.877Z,62.95
2023-01-21T06:16:13.872Z,58.45
2023-01-21T06:18:41.020Z,62.55
2023-01-21T06:21:08.129Z,58.75
2023-01-21T06:23:35.124Z,59.17
2023-01-21T06:26:03.040Z,63.25
2023-01-21T06:28:30.555Z,60.65
2023-01-21T06:30:57.607Z,63.25
2023-01-21T06:34:09.633Z,58.15
2023-01-21T06:37:38.469Z,56.67
2023-01-21T06:40:07.592Z,60.95
2023-01-21T06:42:37.142Z,63.05
2023-01-21T06:45:04.522Z,63.78
2023-01-21T06:47:31.420Z,61.03
2023-01-21T06:49:58.302Z,62.15
2023-01-21T06:52:25.455Z,64.55
2023-01-21T06:54:52.385Z,64.80
2023-01-21T06:57:19.272Z,64.32
2023-01-21T06:59:46.333Z,67.10
2023-01-21T07:02:13.401Z,63.08
2023-01-21T07:04:40.428Z,63.65
2023-01-21T07:07:07.565Z,64.13
2023-01-21T07:09:34.615Z,64.53
2023-01-21T07:12:01.666Z,62.67
2023-01-21T07:14:28.618Z,58.90
2023-01-21T07:16:55.662Z,59.33
2023-01-21T07:19:22.606Z,60.72
2023-01-21T07:21:53.709Z,69.03
2023-01-21T07:24:21.332Z,66.93
2023-01-21T07:26:49.009Z,65.55
2023-01-21T07:29:16.474Z,65.38
2023-01-21T07:31:43.758Z,67.03
2023-01-21T07:34:11.277Z,63.90
2023-01-21T07:36:38.434Z,68.32
2023-01-21T07:39:05.540Z,66.82
2023-01-21T07:41:32.800Z,61.55
2023-01-21T07:44:00.135Z,69.00
2023-01-21T07:46:27.474Z,62.90
2023-01-21T07:48:59.512Z,64.93
2023-01-21T07:51:26.576Z,62.67
2023-01-21T07:53:58.448Z,65.50
2023-01-21T07:56:26.936Z,66.45
2023-01-21T07:58:57.482Z,60.72
2023-01-21T08:01:30.093Z,60.67
2023-01-21T08:03:58.169Z,64.47
2023-01-21T08:06:25.998Z,63.67
2023-01-21T08:08:53.429Z,64.30
2023-01-21T08:11:22.638Z,66.35
2023-01-21T08:13:51.091Z,66.38
2023-01-21T08:16:18.317Z,67.65
2023-01-21T08:18:45.630Z,64.93
2023-01-21T08:21:12.694Z,66.40
2023-01-21T08:23:39.751Z,67.72
2023-01-21T08:26:07.598Z,61.60
2023-01-21T08:28:39.691Z,60.47
2023-01-21T08:31:12.179Z,60.88
2023-01-21T08:33:39.796Z,66.78
2023-01-21T08:36:08.965Z,68.53
2023-01-21T08:38:36.778Z,62.10
2023-01-21T08:41:04.614Z,64.47
2023-01-21T08:43:31.596Z,63.22
2023-01-21T08:46:01.632Z,68.47
2023-01-21T08:48:29.600Z,65.25
2023-01-21T08:51:02.085Z,62.40
2023-01-21T08:53:34.587Z,61.22
2023-01-21T08:56:03.926Z,63.35
2023-01-21T08:58:40.218Z,60.65
2023-01-21T09:01:19.967Z,59.90
2023-01-21T09:03:47.037Z,59.58
2023-01-21T09:06:14.186Z,62.08
2023-01-21T09:08:42.177Z,57.17
2023-01-21T09:11:10.121Z,59.33
2023-01-21T09:13:41.738Z,58.88
2023-01-21T09:16:14.224Z,56.67
2023-01-21T09:18:42.065Z,56.55
2023-01-21T09:21:10.460Z,57.15
2023-01-21T09:23:38.206Z,59.55
2023-01-21T09:26:06.954Z,59.47
2023-01-21T09:28:36.726Z,53.88
2023-01-21T09:31:06.578Z,53.00
2023-01-21T09:33:35.972Z,54.55
2023-01-21T09:36:07.824Z,55.03
2023-01-21T09:38:35.053Z,51.50
2023-01-21T09:41:31.151Z,52.90
2023-01-21T09:44:14.876Z,55.17
2023-01-21T09:46:46.942Z,50.92
2023-01-21T09:49:23.801Z,56.85
2023-01-21T09:51:58.909Z,53.58
2023-01-21T09:54:28.872Z,54.30
2023-01-21T09:57:25.659Z,56.22
2023-01-21T10:00:08.107Z,53.88
2023-01-21T10:02:55.614Z,48.95
2023-01-21T10:05:34.101Z,48.53
2023-01-21T10:08:24.368Z,47.83
2023-01-21T10:10:53.398Z,49.70
2023-01-21T10:13:48.002Z,47.65
2023-01-21T10:16:25.789Z,46.72
2023-01-21T10:18:54.850Z,47.28
2023-01-21T10:21:32.835Z,40.78
2023-01-21T10:24:35.013Z,50.85
2023-01-21T10:27:02.028Z,46.17
2023-01-21T10:29:29.128Z,51.78
2023-01-21T10:32:14.082Z,45.80
2023-01-21T10:34:52.503Z,45.28
2023-01-21T10:37:46.576Z,48.47
2023-01-21T10:40:41.183Z,40.13
2023-01-21T10:43:17.025Z,44.38
2023-01-21T10:45:56.186Z,40.92
2023-01-21T10:48:32.255Z,44.90
2023-01-21T10:51:06.806Z,43.90
2023-01-21T10:53:39.312Z,44.28
2023-01-21T10:56:37.592Z,43.25
2023-01-21T10:59:12.233Z,43.03
2023-01-21T11:01:45.333Z,42.97
2023-01-21T11:04:16.716Z,39.28
2023-01-21T11:06:46.457Z,39.97
2023-01-21T11:09:14.985Z,44.22
2023-01-21T11:11:43.107Z,44.03
2023-01-21T11:14:10.673Z,40.42
2023-01-21T11:16:43.924Z,39.72
2023-01-21T11:19:37.238Z,38.63
2023-01-21T11:22:06.190Z,40.83
2023-01-21T11:24:43.815Z,37.13
2023-01-21T11:27:34.276Z,38.13
2023-01-21T11:30:02.325Z,39.40
2023-01-21T11:32:31.355Z,42.28
2023-01-21T11:35:10.743Z,41.22
2023-01-21T11:37:38.580Z,37.80
2023-01-21T11:40:11.695Z,39.75
2023-01-21T11:42:50.153Z,35.80
2023-01-21T11:45:31.185Z,41.78
2023-01-21T11:47:59.477Z,40.00
2023-01-21T11:50:34.866Z,37.72
2023-01-21T11:53:08.021Z,37.85
2023-01-21T11:55:55.314Z,38.35
2023-01-21T11:58:38.313Z,34.15
2023-01-21T12:01:22.093Z,41.00
2023-01-21T12:03:53.398Z,34.00
2023-01-21T12:06:31.699Z,39.95
2023-01-21T12:09:04.718Z,33.88
2023-01-21T12:11:32.968Z,33.47
2023-01-21T12:14:38.654Z,36.10
2023-01-21T12:17:26.919Z,39.60
2023-01-21T12:20:08.501Z,34.63
2023-01-21T12:22:48.414Z,42.15
2023-01-21T12:25:23.450Z,35.97
2023-01-21T12:28:08.148Z,36.40
2023-01-21T12:31:06.172Z,33.13
2023-01-21T12:33:35.998Z,34.83
2023-01-21T12:36:32.169Z,34.17
2023-01-21T12:39:21.295Z,38.47
2023-01-21T12:42:05.060Z,35.08
2023-01-21T12:44:46.917Z,32.70
2023-01-21T12:48:07.165Z,31.05
2023-01-21T12:50:45.910Z,33.03
2023-01-21T12:53:20.080Z,31.30
2023-01-21T12:56:14.507Z,36.10
2023-01-21T12:59:00.055Z,41.90
2023-01-21T13:01:54.797Z,34.25
2023-01-21T13:04:25.461Z,27.80
2023-01-21T13:07:12.543Z,34.95
2023-01-21T13:10:07.978Z,32.70
2023-01-21T13:12:37.870Z,28.25
2023-01-21T13:15:28.316Z,31.55
2023-01-21T13:18:01.499Z,30.08
2023-01-21T13:20:31.133Z,32.75
2023-01-21T13:23:29.527Z,31.20
2023-01-21T13:26:34.920Z,33.95
2023-01-21T13:29:24.494Z,32.78
2023-01-21T13:32:20.435Z,37.13
2023-01-21T13:35:11.045Z,25.15
2023-01-21T13:37:58.356Z,25.25
2023-01-21T13:40:31.803Z,27.77
2023-01-21T13:43:11.677Z,31.40
2023-01-21T13:45:44.672Z,32.70
2023-01-21T13:48:39.166Z,34.63
2023-01-21T13:51:22.690Z,29.63
2023-01-21T13:54:20.569Z,37.35
2023-01-21T13:57:08.213Z,33.83
2023-01-21T13:59:46.206Z,29.20
2023-01-21T14:02:28.959Z,31.50
2023-01-21T14:05:16.491Z,34.70
2023-01-21T14:07:52.984Z,44.35
2023-01-21T14:10:33.584Z,35.55
2023-01-21T14:13:31.884Z,30.10
2023-01-21T14:16:20.625Z,33.97
2023-01-21T14:18:50.820Z,27.23
2023-01-21T14:21:50.737Z,33.90
2023-01-21T14:24:17.686Z,38.65
2023-01-21T14:27:00.667Z,29.10
2023-01-21T14:29:41.057Z,31.92
2023-01-21T14:32:34.455Z,36.08
2023-01-21T14:35:01.355Z,31.30
2023-01-21T14:37:37.967Z,31.95
2023-01-21T14:40:34.727Z,35.38
2023-01-21T14:43:03.667Z,47.53
2023-01-21T14:45:52.511Z,38.00
2023-01-21T14:48:29.816Z,36.38
2023-01-21T14:51:13.279Z,30.67
2023-01-21T14:53:51.475Z,36.70
2023-01-21T14:56:26.658Z,37.28
2023-01-21T14:59:08.549Z,43.15
2023-01-21T15:01:43.552Z,36.78
2023-01-21T15:04:29.710Z,43.90
2023-01-21T15:07:01.152Z,38.40
2023-01-21T15:09:35.899Z,42.67
2023-01-21T15:12:11.668Z,41.42
2023-01-21T15:14:41.730Z,36.45
2023-01-21T15:17:50.253Z,38.50
2023-01-21T15:20:50.580Z,42.22
2023-01-21T15:23:30.207Z,42.22
2023-01-21T15:26:32.609Z,44.25
2023-01-21T15:29:22.959Z,42.78
2023-01-21T15:31:50.091Z,41.22
2023-01-21T15:34:21.384Z,45.67
2023-01-21T15:36:53.436Z,44.05
2023-01-21T15:39:29.210Z,47.83
2023-01-21T15:42:03.839Z,46.60
2023-01-21T15:44:49.570Z,43.75
2023-01-21T15:47:53.221Z,46.33
2023-01-21T15:50:29.677Z,43.13
2023-01-21T15:53:23.882Z,48.45
2023-01-21T15:55:50.889Z,45.60
2023-01-21T15:58:46.465Z,47.58
2023-01-21T16:01:25.812Z,48.33
2023-01-21T16:03:59.024Z,48.35
2023-01-21T16:06:49.314Z,46.55
2023-01-21T16:09:37.372Z,51.58
2023-01-21T16:12:22.827Z,46.35
2023-01-21T16:14:56.134Z,45.35
2023-01-21T16:17:36.531Z,46.65
2023-01-21T16:20:07.295Z,43.10
2023-01-21T16:22:38.576Z,46.75
2023-01-21T16:25:10.757Z,41.40
2023-01-21T16:27:44.928Z,46.65
2023-01-21T16:30:19.971Z,46.10
2023-01-21T16:32:47.227Z,50.38
2023-01-21T16:35:14.316Z,50.15
2023-01-21T16:37:45.548Z,47.80
2023-01-21T16:40:19.234Z,49.75
2023-01-21T16:42:46.376Z,59.80
2023-01-21T16:45:26.195Z,55.90
2023-01-21T16:47:57.014Z,59.85
2023-01-21T16:50:27.444Z,59.60
2023-01-21T16:52:58.638Z,56.58
2023-01-21T16:55:28.359Z,59.08
2023-01-21T16:58:01.409Z,62.30
2023-01-21T17:00:31.654Z,55.47
2023-01-21T17:03:06.488Z,56.63
2023-01-21T17:05:35.562Z,50.60
2023-01-21T17:08:09.305Z,56.60
2023-01-21T17:10:51.511Z,65.23
2023-01-21T17:13:18.738Z,52.97
2023-01-21T17:15:58.163Z,51.80
2023-01-21T17:18:27.962Z,54.13
2023-01-21T17:21:15.546Z,56.70
2023-01-21T17:23:51.055Z,55.33
2023-01-21T17:26:23.906Z,50.70
2023-01-21T17:29:07.841Z,48.33
2023-01-21T17:31:41.411Z,55.47
2023-01-21T17:34:17.174Z,50.08
2023-01-21T17:36:46.790Z,54.05
2023-01-21T17:39:14.351Z,53.88
2023-01-21T17:41:44.274Z,51.40
2023-01-21T17:44:21.515Z,53.75
2023-01-21T17:46:53.535Z,47.40
2023-01-21T17:49:23.592Z,51.40
2023-01-21T17:51:52.762Z,52.40
2023-01-21T17:54:29.440Z,59.80
2023-01-21T17:57:03.266Z,52.80
2023-01-21T17:59:41.682Z,61.55
2023-01-21T18:02:13.820Z,60.53
2023-01-21T18:04:41.292Z,54.35
2023-01-21T18:07:30.105Z,54.17
2023-01-21T18:10:04.827Z,52.05
2023-01-21T18:12:31.736Z,57.55
2023-01-21T18:14:58.799Z,55.10
2023-01-21T18:17:25.993Z,52.05
2023-01-21T18:19:53.767Z,51.17
2023-01-21T18:22:27.165Z,53.80
2023-01-21T18:24:54.570Z,57.03
2023-01-21T18:27:25.729Z,57.17
2023-01-21T18:29:53.606Z,51.38
2023-01-21T18:32:20.887Z,51.40
2023-01-21T18:34:47.884Z,58.38
2023-01-21T18:37:17.390Z,53.50
2023-01-21T18:39:44.275Z,54.63
2023-01-21T18:42:14.138Z,50.30
2023-01-21T18:44:41.664Z,47.70
2023-01-21T18:47:13.591Z,52.05
2023-01-21T18:49:41.050Z,53.15
2023-01-21T18:52:10.720Z,55.75
2023-01-21T18:54:37.664Z,64.70
2023-01-21T18:57:10.711Z,59.72
2023-01-21T18:59:38.094Z,56.92
2023-01-21T19:02:14.611Z,60.75
2023-01-21T19:04:41.580Z,71.18
2023-01-21T19:07:16.324Z,73.25
2023-01-21T19:09:51.115Z,78.15
2023-01-21T19:12:21.283Z,86.63
2023-01-21T19:14:48.882Z,75.95
2023-01-21T19:17:27.845Z,64.30
2023-01-21T19:19:55.736Z,67.93
2023-01-21T19:22:26.217Z,84.35
2023-01-21T19:24:53.312Z,76.43
2023-01-21T19:27:30.435Z,77.30
2023-01-21T19:29:57.900Z,62.67
2023-01-21T19:32:25.167Z,63.00
2023-01-21T19:34:52.147Z,56.22
2023-01-21T19:37:23.435Z,56.78
2023-01-21T19:39:50.408Z,55.35
2023-01-21T19:42:18.105Z,56.58
2023-01-21T19:44:50.462Z,66.40
2023-01-21T19:47:24.968Z,59.55
2023-01-21T19:49:52.188Z,59.95
2023-01-21T19:52:19.265Z,59.22
2023-01-21T19:54:46.244Z,59.55
2023-01-21T19:57:17.157Z,56.40
2023-01-21T19:59:45.310Z,62.05
2023-01-21T20:02:12.734Z,57.00
2023-01-21T20:04:39.859Z,57.45
2023-01-21T20:07:07.390Z,63.47
2023-01-21T20:09:34.301Z,59.33
2023-01-21T20:12:03.431Z,56.40
2023-01-21T20:14:33.265Z,60.15
2023-01-21T20:17:00.122Z,62.78
2023-01-21T20:19:27.127Z,60.42
2023-01-21T20:22:02.118Z,57.03
2023-01-21T20:24:30.608Z,59.67
2023-01-21T20:26:58.664Z,63.72
2023-01-21T20:29:27.092Z,57.92
2023-01-21T20:31:54.497Z,65.18
2023-01-21T20:34:24.617Z,58.60
2023-01-21T20:36:51.903Z,64.38
2023-01-21T20:39:19.213Z,61.90
2023-01-21T20:41:46.026Z,61.13
2023-01-21T20:44:12.811Z,58.30
2023-01-21T20:46:40.113Z,59.42
2023-01-21T20:49:07.225Z,59.63
2023-01-21T20:51:34.028Z,65.07
2023-01-21T20:54:00.884Z,60.83
2023-01-21T20:56:30.772Z,62.75
2023-01-21T20:58:59.336Z,58.88
2023-01-21T21:01:27.316Z,57.22
2023-01-21T21:03:54.302Z,61.38
2023-01-21T21:06:25.111Z,64.20
2023-01-21T21:08:52.532Z,61.90
2023-01-21T21:11:19.604Z,62.00
2023-01-21T21:13:52.560Z,66.13
2023-01-21T21:16:28.686Z,55.25
2023-01-21T21:18:56.323Z,60.58
2023-01-21T21:21:24.308Z,60.00
2023-01-21T21:23:52.637Z,62.88
2023-01-21T21:26:25.506Z,62.03
2023-01-21T21:28:57.709Z,58.20
2023-01-21T21:31:30.168Z,64.95
2023-01-21T21:33:57.135Z,63.03
2023-01-21T21:36:25.032Z,56.95
2023-01-21T21:38:55.935Z,63.70
2023-01-21T21:41:44.037Z,57.78
2023-01-21T21:44:11.375Z,57.30
2023-01-21T21:46:57.191Z,64.03
2023-01-21T21:49:24.790Z,63.63
2023-01-21T21:51:51.936Z,60.67
2023-01-21T21:54:19.218Z,65.43
2023-01-21T21:56:47.494Z,62.75
2023-01-21T21:59:15.321Z,61.78
2023-01-21T22:01:44.175Z,59.75
2023-01-21T22:04:11.624Z,59.95
2023-01-21T22:06:38.853Z,70.70
2023-01-21T22:09:06.433Z,69.82
2023-01-21T22:11:33.338Z,70.15
2023-01-21T22:14:04.474Z,73.65
2023-01-21T22:16:32.386Z,73.00
2023-01-21T22:19:00.640Z,71.38
2023-01-21T22:21:31.859Z,72.78
2023-01-21T22:23:59.380Z,73.40
2023-01-21T22:26:27.110Z,80.38
2023-01-21T22:28:54.056Z,76.50
2023-01-21T22:31:26.641Z,68.72
2023-01-21T22:33:54.078Z,73.00
2023-01-21T22:36:23.363Z,63.70
2023-01-21T22:38:50.883Z,70.55
2023-01-21T22:41:20.100Z,63.40
2023-01-21T22:43:50.849Z,63.95
2023-01-21T22:46:23.530Z,67.63
2023-01-21T22:48:50.761Z,72.07
2023-01-21T22:51:19.640Z,67.40
2023-01-21T22:53:47.910Z,63.75
2023-01-21T22:56:17.114Z,67.50
2023-01-21T22:58:45.062Z,67.07
2023-01-21T23:01:31.501Z,69.43
2023-01-21T23:03:59.854Z,62.47
2023-01-21T23:06:27.200Z,65.55
2023-01-21T23:08:54.501Z,65.80
2023-01-21T23:11:21.618Z,62.63
2023-01-21T23:13:53.335Z,62.08
2023-01-21T23:16:21.250Z,62.92
2023-01-21T23:18:48.838Z,65.78
2023-01-21T23:21:21.109Z,68.28
2023-01-21T23:23:48.809Z,67.95
2023-01-21T23:26:18.310Z,66.05
2023-01-21T23:28:45.988Z,67.80
2023-01-21T23:31:15.536Z,68.25
2023-01-21T23:33:43.170Z,59.25
2023-01-21T23:36:13.033Z,66.03
2023-01-21T23:38:41.276Z,66.50
2023-01-21T23:41:10.452Z,63.55
2023-01-21T23:43:37.690Z,66.20
2023-01-21T23:46:06.671Z,63.90
2023-01-21T23:48:33.475Z,66.00
2023-01-21T23:51:05.169Z,65.57
2023-01-21T23:53:33.569Z,59.80
2023-01-21T23:56:24.991Z,69.05
2023-01-21T23:58:52.630Z,67.07
